sensor_id;sensor_type;location;lat;lon;timestamp;pressure;altitude;pressure_sealevel;temperature;humidity
71956;BME280;59829;50.562;6.258;2023-04-26T00:26:11;95889.19;;;2.82;80.30
71956;BME280;59829;50.562;6.258;2023-04-26T00:56:11;95873.41;;;2.40;81.41
71956;BME280;59829;50.562;6.258;2023-04-26T01:26:12;95880.38;;;1.99;82.71
71956;BME280;59829;50.562;6.258;2023-04-26T01:56:12;95880.44;;;1.79;84.31
71956;BME280;59829;50.562;6.258;2023-04-26T02:26:13;95879.00;;;1.34;85.19
71956;BME280;59829;50.562;6.258;2023-04-26T02:56:14;95863.63;;;1.00;86.71
71956;BME280;59829;50.562;6.258;2023-04-26T03:26:15;95829.19;;;0.78;88.24
71956;BME280;59829;50.562;6.258;2023-04-26T03:56:15;95831.44;;;0.44;89.03
71956;BME280;59829;50.562;6.258;2023-04-26T04:26:16;95846.81;;;0.38;90.66
71956;BME280;59829;50.562;6.258;2023-04-26T04:56:16;95865.72;;;0.48;92.06
71956;BME280;59829;50.562;6.258;2023-04-26T05:26:17;95882.91;;;0.80;92.85
71956;BME280;59829;50.562;6.258;2023-04-26T05:56:17;95893.72;;;1.25;93.36
71956;BME280;59829;50.562;6.258;2023-04-26T06:26:18;95903.50;;;1.90;94.01
71956;BME280;59829;50.562;6.258;2023-04-26T06:56:18;95913.53;;;3.19;94.71
71956;BME280;59829;50.562;6.258;2023-04-26T07:26:18;95908.31;;;4.52;94.07
71956;BME280;59829;50.562;6.258;2023-04-26T07:56:19;95902.69;;;5.23;91.82
71956;BME280;59829;50.562;6.258;2023-04-26T08:26:19;95899.91;;;5.70;88.54
71956;BME280;59829;50.562;6.258;2023-04-26T08:56:21;95912.13;;;6.08;85.56
71956;BME280;59829;50.562;6.258;2023-04-26T09:26:22;95891.88;;;6.48;82.16
71956;BME280;59829;50.562;6.258;2023-04-26T09:56:22;95877.28;;;7.04;79.49
71956;BME280;59829;50.562;6.258;2023-04-26T10:26:45;95863.34;;;7.22;76.47
71956;BME280;59829;50.562;6.258;2023-04-26T11:26:50;95815.31;;;8.88;71.44
71956;BME280;59829;50.562;6.258;2023-04-26T11:56:50;95801.81;;;9.21;69.12
71956;BME280;59829;50.562;6.258;2023-04-26T12:26:51;95808.69;;;9.54;66.75
71956;BME280;59829;50.562;6.258;2023-04-26T12:56:52;95802.06;;;9.40;64.17
71956;BME280;59829;50.562;6.258;2023-04-26T13:26:52;95799.41;;;9.64;61.83
71956;BME280;59829;50.562;6.258;2023-04-26T13:56:52;95800.31;;;9.96;60.28
71956;BME280;59829;50.562;6.258;2023-04-26T14:26:53;95795.56;;;9.58;59.27
71956;BME280;59829;50.562;6.258;2023-04-26T14:56:53;95785.66;;;9.65;59.35
71956;BME280;59829;50.562;6.258;2023-04-26T15:26:54;95773.56;;;9.67;59.05
71956;BME280;59829;50.562;6.258;2023-04-26T15:56:54;95785.44;;;9.46;59.18
71956;BME280;59829;50.562;6.258;2023-04-26T16:26:54;95799.47;;;9.06;59.19
71956;BME280;59829;50.562;6.258;2023-04-26T16:56:55;95792.56;;;8.96;59.71
71956;BME280;59829;50.562;6.258;2023-04-26T17:26:56;95800.03;;;9.10;60.17
71956;BME280;59829;50.562;6.258;2023-04-26T17:56:56;95819.97;;;8.59;59.96
71956;BME280;59829;50.562;6.258;2023-04-26T18:26:57;95856.78;;;7.94;60.68
71956;BME280;59829;50.562;6.258;2023-04-26T18:56:57;95873.25;;;7.39;61.33
71956;BME280;59829;50.562;6.258;2023-04-26T19:26:58;95886.63;;;6.90;62.11
71956;BME280;59829;50.562;6.258;2023-04-26T19:56:58;95892.91;;;6.58;63.25
71956;BME280;59829;50.562;6.258;2023-04-26T20:26:59;95905.59;;;6.45;63.90
71956;BME280;59829;50.562;6.258;2023-04-26T20:57:01;95915.19;;;5.99;64.73
71956;BME280;59829;50.562;6.258;2023-04-26T21:27:03;95928.75;;;5.55;66.47
71956;BME280;59829;50.562;6.258;2023-04-26T21:57:03;95928.84;;;5.09;67.86
71956;BME280;59829;50.562;6.258;2023-04-26T22:27:05;95926.38;;;4.78;69.40
71956;BME280;59829;50.562;6.258;2023-04-26T22:57:06;95943.25;;;4.47;71.29
71956;BME280;59829;50.562;6.258;2023-04-26T23:27:07;95938.97;;;4.32;73.05
71956;BME280;59829;50.562;6.258;2023-04-26T23:57:07;95963.00;;;3.76;74.79
